sensor_id;sensor_type;location;lat;lon;timestamp;temperature;humidity
70051;SHT30;57391;51.306;22.680;2023-12-14T00:00:41;3.60;83.40
70051;SHT30;57391;51.306;22.680;2023-12-14T00:03:03;3.62;83.32
70051;SHT30;57391;51.306;22.680;2023-12-14T00:05:04;3.63;83.30
70051;SHT30;57391;51.306;22.680;2023-12-14T00:07:07;3.63;83.20
70051;SHT30;57391;51.306;22.680;2023-12-14T00:09:08;3.63;83.06
70051;SHT30;57391;51.306;22.680;2023-12-14T00:11:11;3.63;83.06
70051;SHT30;57391;51.306;22.680;2023-12-14T00:13:13;3.62;83.01
70051;SHT30;57391;51.306;22.680;2023-12-14T00:15:15;3.62;83.03
70051;SHT30;57391;51.306;22.680;2023-12-14T00:17:16;3.63;83.04
70051;SHT30;57391;51.306;22.680;2023-12-14T00:19:18;3.63;82.96
70051;SHT30;57391;51.306;22.680;2023-12-14T00:21:20;3.63;83.01
70051;SHT30;57391;51.306;22.680;2023-12-14T00:23:22;3.63;83.03
70051;SHT30;57391;51.306;22.680;2023-12-14T00:25:25;3.63;82.94
70051;SHT30;57391;51.306;22.680;2023-12-14T00:27:26;3.64;83.00
70051;SHT30;57391;51.306;22.680;2023-12-14T00:29:28;3.64;83.03
70051;SHT30;57391;51.306;22.680;2023-12-14T00:31:30;3.66;83.04
70051;SHT30;57391;51.306;22.680;2023-12-14T00:33:32;3.68;82.99
70051;SHT30;57391;51.306;22.680;2023-12-14T00:35:34;3.69;82.97
70051;SHT30;57391;51.306;22.680;2023-12-14T00:37:35;3.70;82.89
70051;SHT30;57391;51.306;22.680;2023-12-14T00:39:37;3.70;82.97
70051;SHT30;57391;51.306;22.680;2023-12-14T00:41:39;3.70;82.96
70051;SHT30;57391;51.306;22.680;2023-12-14T00:43:41;3.71;83.01
70051;SHT30;57391;51.306;22.680;2023-12-14T00:45:43;3.72;83.00
70051;SHT30;57391;51.306;22.680;2023-12-14T00:47:44;3.73;83.00
70051;SHT30;57391;51.306;22.680;2023-12-14T00:49:46;3.74;82.95
70051;SHT30;57391;51.306;22.680;2023-12-14T00:51:48;3.75;82.90
70051;SHT30;57391;51.306;22.680;2023-12-14T00:53:50;3.76;82.89
70051;SHT30;57391;51.306;22.680;2023-12-14T00:55:51;3.77;82.81
70051;SHT30;57391;51.306;22.680;2023-12-14T00:57:53;3.75;82.82
70051;SHT30;57391;51.306;22.680;2023-12-14T00:59:55;3.74;82.85
70051;SHT30;57391;51.306;22.680;2023-12-14T01:01:57;3.73;82.89
70051;SHT30;57391;51.306;22.680;2023-12-14T01:03:59;3.72;82.89
70051;SHT30;57391;51.306;22.680;2023-12-14T01:06:00;3.72;82.94
70051;SHT30;57391;51.306;22.680;2023-12-14T01:08:02;3.72;82.89
70051;SHT30;57391;51.306;22.680;2023-12-14T01:10:04;3.71;82.89
70051;SHT30;57391;51.306;22.680;2023-12-14T01:12:07;3.71;82.90
70051;SHT30;57391;51.306;22.680;2023-12-14T01:14:09;3.70;82.93
70051;SHT30;57391;51.306;22.680;2023-12-14T01:16:10;3.68;83.06
70051;SHT30;57391;51.306;22.680;2023-12-14T01:18:12;3.68;82.99
70051;SHT30;57391;51.306;22.680;2023-12-14T01:20:14;3.67;83.01
70051;SHT30;57391;51.306;22.680;2023-12-14T01:22:16;3.68;83.05
70051;SHT30;57391;51.306;22.680;2023-12-14T01:24:17;3.67;83.16
70051;SHT30;57391;51.306;22.680;2023-12-14T01:26:19;3.69;83.15
70051;SHT30;57391;51.306;22.680;2023-12-14T01:28:21;3.69;83.06
70051;SHT30;57391;51.306;22.680;2023-12-14T01:30:22;3.70;83.06
70051;SHT30;57391;51.306;22.680;2023-12-14T01:32:24;3.70;83.05
70051;SHT30;57391;51.306;22.680;2023-12-14T01:34:26;3.67;83.03
70051;SHT30;57391;51.306;22.680;2023-12-14T01:36:28;3.66;83.11
70051;SHT30;57391;51.306;22.680;2023-12-14T01:38:30;3.66;83.15
70051;SHT30;57391;51.306;22.680;2023-12-14T01:40:31;3.64;83.21
70051;SHT30;57391;51.306;22.680;2023-12-14T01:42:33;3.67;83.24
70051;SHT30;57391;51.306;22.680;2023-12-14T01:44:35;3.67;83.20
70051;SHT30;57391;51.306;22.680;2023-12-14T01:46:36;3.67;83.21
70051;SHT30;57391;51.306;22.680;2023-12-14T01:48:38;3.69;83.23
70051;SHT30;57391;51.306;22.680;2023-12-14T01:50:40;3.70;83.30
70051;SHT30;57391;51.306;22.680;2023-12-14T01:52:42;3.72;83.20
70051;SHT30;57391;51.306;22.680;2023-12-14T01:54:44;3.72;83.16
70051;SHT30;57391;51.306;22.680;2023-12-14T01:56:45;3.74;83.20
70051;SHT30;57391;51.306;22.680;2023-12-14T01:58:48;3.73;83.03
70051;SHT30;57391;51.306;22.680;2023-12-14T02:00:58;3.72;83.01
70051;SHT30;57391;51.306;22.680;2023-12-14T02:03:24;3.68;83.05
70051;SHT30;57391;51.306;22.680;2023-12-14T02:05:26;3.68;83.26
70051;SHT30;57391;51.306;22.680;2023-12-14T02:07:28;3.70;83.30
70051;SHT30;57391;51.306;22.680;2023-12-14T02:09:30;3.70;83.21
70051;SHT30;57391;51.306;22.680;2023-12-14T02:11:31;3.70;83.19
70051;SHT30;57391;51.306;22.680;2023-12-14T02:13:34;3.69;83.10
70051;SHT30;57391;51.306;22.680;2023-12-14T02:15:35;3.67;83.15
70051;SHT30;57391;51.306;22.680;2023-12-14T02:17:37;3.65;83.24
70051;SHT30;57391;51.306;22.680;2023-12-14T02:19:39;3.65;83.22
70051;SHT30;57391;51.306;22.680;2023-12-14T02:21:41;3.65;83.36
70051;SHT30;57391;51.306;22.680;2023-12-14T02:23:44;3.66;83.36
70051;SHT30;57391;51.306;22.680;2023-12-14T02:25:46;3.66;83.30
70051;SHT30;57391;51.306;22.680;2023-12-14T02:27:49;3.65;83.30
70051;SHT30;57391;51.306;22.680;2023-12-14T02:29:52;3.65;83.30
70051;SHT30;57391;51.306;22.680;2023-12-14T02:31:54;3.63;83.25
70051;SHT30;57391;51.306;22.680;2023-12-14T02:33:56;3.62;83.32
70051;SHT30;57391;51.306;22.680;2023-12-14T02:35:57;3.63;83.35
70051;SHT30;57391;51.306;22.680;2023-12-14T02:38:00;3.62;83.34
70051;SHT30;57391;51.306;22.680;2023-12-14T02:40:01;3.60;83.40
70051;SHT30;57391;51.306;22.680;2023-12-14T02:42:04;3.61;83.41
70051;SHT30;57391;51.306;22.680;2023-12-14T02:44:06;3.60;83.47
70051;SHT30;57391;51.306;22.680;2023-12-14T02:46:08;3.61;83.53
70051;SHT30;57391;51.306;22.680;2023-12-14T02:48:10;3.61;83.50
70051;SHT30;57391;51.306;22.680;2023-12-14T02:50:12;3.62;83.47
70051;SHT30;57391;51.306;22.680;2023-12-14T02:52:14;3.60;83.36
70051;SHT30;57391;51.306;22.680;2023-12-14T02:54:16;3.61;83.49
70051;SHT30;57391;51.306;22.680;2023-12-14T02:56:17;3.61;83.53
70051;SHT30;57391;51.306;22.680;2023-12-14T02:58:19;3.63;83.59
70051;SHT30;57391;51.306;22.680;2023-12-14T03:00:21;3.64;83.57
70051;SHT30;57391;51.306;22.680;2023-12-14T03:02:23;3.66;83.45
70051;SHT30;57391;51.306;22.680;2023-12-14T03:04:24;3.67;83.41
70051;SHT30;57391;51.306;22.680;2023-12-14T03:06:26;3.68;83.41
70051;SHT30;57391;51.306;22.680;2023-12-14T03:08:28;3.69;83.38
70051;SHT30;57391;51.306;22.680;2023-12-14T03:10:29;3.69;83.32
70051;SHT30;57391;51.306;22.680;2023-12-14T03:12:31;3.70;83.36
70051;SHT30;57391;51.306;22.680;2023-12-14T03:14:33;3.70;83.28
70051;SHT30;57391;51.306;22.680;2023-12-14T03:16:35;3.69;83.31
70051;SHT30;57391;51.306;22.680;2023-12-14T03:18:36;3.68;83.34
70051;SHT30;57391;51.306;22.680;2023-12-14T03:20:38;3.67;83.31
70051;SHT30;57391;51.306;22.680;2023-12-14T03:22:40;3.68;83.30
70051;SHT30;57391;51.306;22.680;2023-12-14T03:24:42;3.66;83.36
70051;SHT30;57391;51.306;22.680;2023-12-14T03:26:44;3.66;83.39
70051;SHT30;57391;51.306;22.680;2023-12-14T03:28:46;3.65;83.39
70051;SHT30;57391;51.306;22.680;2023-12-14T03:30:47;3.65;83.39
70051;SHT30;57391;51.306;22.680;2023-12-14T03:32:49;3.65;83.40
70051;SHT30;57391;51.306;22.680;2023-12-14T03:34:51;3.66;83.40
70051;SHT30;57391;51.306;22.680;2023-12-14T03:36:53;3.65;83.40
70051;SHT30;57391;51.306;22.680;2023-12-14T03:38:54;3.68;83.44
70051;SHT30;57391;51.306;22.680;2023-12-14T03:40:56;3.65;83.34
70051;SHT30;57391;51.306;22.680;2023-12-14T03:42:58;3.65;83.35
70051;SHT30;57391;51.306;22.680;2023-12-14T03:45:00;3.64;83.38
70051;SHT30;57391;51.306;22.680;2023-12-14T03:47:02;3.62;83.40
70051;SHT30;57391;51.306;22.680;2023-12-14T03:49:04;3.60;83.50
70051;SHT30;57391;51.306;22.680;2023-12-14T03:51:05;3.60;83.49
70051;SHT30;57391;51.306;22.680;2023-12-14T03:53:07;3.57;83.56
70051;SHT30;57391;51.306;22.680;2023-12-14T03:55:09;3.55;83.63
70051;SHT30;57391;51.306;22.680;2023-12-14T03:57:11;3.52;83.66
70051;SHT30;57391;51.306;22.680;2023-12-14T03:59:13;3.50;83.79
70051;SHT30;57391;51.306;22.680;2023-12-14T04:01:16;3.50;83.86
70051;SHT30;57391;51.306;22.680;2023-12-14T04:03:22;3.50;83.96
70051;SHT30;57391;51.306;22.680;2023-12-14T04:05:23;3.51;84.07
70051;SHT30;57391;51.306;22.680;2023-12-14T04:07:25;3.53;83.97
70051;SHT30;57391;51.306;22.680;2023-12-14T04:09:27;3.55;84.07
70051;SHT30;57391;51.306;22.680;2023-12-14T04:11:28;3.56;84.03
70051;SHT30;57391;51.306;22.680;2023-12-14T04:13:30;3.58;83.93
70051;SHT30;57391;51.306;22.680;2023-12-14T04:15:32;3.58;83.91
70051;SHT30;57391;51.306;22.680;2023-12-14T04:17:34;3.59;83.86
70051;SHT30;57391;51.306;22.680;2023-12-14T04:19:38;3.59;83.86
70051;SHT30;57391;51.306;22.680;2023-12-14T04:21:40;3.59;83.86
70051;SHT30;57391;51.306;22.680;2023-12-14T04:23:42;3.60;83.85
70051;SHT30;57391;51.306;22.680;2023-12-14T04:25:44;3.59;83.75
70051;SHT30;57391;51.306;22.680;2023-12-14T04:27:46;3.58;83.85
70051;SHT30;57391;51.306;22.680;2023-12-14T04:29:47;3.57;83.80
70051;SHT30;57391;51.306;22.680;2023-12-14T04:31:49;3.57;83.85
70051;SHT30;57391;51.306;22.680;2023-12-14T04:33:51;3.57;83.84
70051;SHT30;57391;51.306;22.680;2023-12-14T04:35:53;3.55;83.75
70051;SHT30;57391;51.306;22.680;2023-12-14T04:37:54;3.54;83.79
70051;SHT30;57391;51.306;22.680;2023-12-14T04:39:59;3.53;83.91
70051;SHT30;57391;51.306;22.680;2023-12-14T04:42:01;3.52;83.93
70051;SHT30;57391;51.306;22.680;2023-12-14T04:44:03;3.51;83.91
70051;SHT30;57391;51.306;22.680;2023-12-14T04:46:05;3.51;83.91
70051;SHT30;57391;51.306;22.680;2023-12-14T04:48:07;3.49;83.90
70051;SHT30;57391;51.306;22.680;2023-12-14T04:50:09;3.47;83.94
70051;SHT30;57391;51.306;22.680;2023-12-14T04:52:11;3.45;84.00
70051;SHT30;57391;51.306;22.680;2023-12-14T04:54:13;3.45;84.13
70051;SHT30;57391;51.306;22.680;2023-12-14T04:56:14;3.47;84.10
70051;SHT30;57391;51.306;22.680;2023-12-14T04:58:16;3.46;84.05
70051;SHT30;57391;51.306;22.680;2023-12-14T05:00:18;3.45;84.06
70051;SHT30;57391;51.306;22.680;2023-12-14T05:02:20;3.47;84.07
70051;SHT30;57391;51.306;22.680;2023-12-14T05:04:21;3.47;84.09
70051;SHT30;57391;51.306;22.680;2023-12-14T05:06:23;3.45;84.03
70051;SHT30;57391;51.306;22.680;2023-12-14T05:08:25;3.45;84.00
70051;SHT30;57391;51.306;22.680;2023-12-14T05:10:27;3.45;84.14
70051;SHT30;57391;51.306;22.680;2023-12-14T05:12:28;3.47;84.13
70051;SHT30;57391;51.306;22.680;2023-12-14T05:14:32;3.47;84.07
70051;SHT30;57391;51.306;22.680;2023-12-14T05:16:34;3.48;84.05
70051;SHT30;57391;51.306;22.680;2023-12-14T05:18:36;3.48;84.13
70051;SHT30;57391;51.306;22.680;2023-12-14T05:20:37;3.49;84.00
70051;SHT30;57391;51.306;22.680;2023-12-14T05:22:39;3.49;84.00
70051;SHT30;57391;51.306;22.680;2023-12-14T05:24:41;3.51;84.07
70051;SHT30;57391;51.306;22.680;2023-12-14T05:26:43;3.51;84.00
70051;SHT30;57391;51.306;22.680;2023-12-14T05:28:44;3.51;84.00
70051;SHT30;57391;51.306;22.680;2023-12-14T05:30:46;3.52;83.95
70051;SHT30;57391;51.306;22.680;2023-12-14T05:32:48;3.52;83.94
70051;SHT30;57391;51.306;22.680;2023-12-14T05:34:50;3.53;83.93
70051;SHT30;57391;51.306;22.680;2023-12-14T05:36:51;3.52;83.90
70051;SHT30;57391;51.306;22.680;2023-12-14T05:38:53;3.51;83.90
70051;SHT30;57391;51.306;22.680;2023-12-14T05:40:55;3.50;83.90
70051;SHT30;57391;51.306;22.680;2023-12-14T05:42:57;3.50;83.91
70051;SHT30;57391;51.306;22.680;2023-12-14T05:44:59;3.50;83.94
70051;SHT30;57391;51.306;22.680;2023-12-14T05:47:00;3.49;83.99
70051;SHT30;57391;51.306;22.680;2023-12-14T05:49:02;3.49;83.91
70051;SHT30;57391;51.306;22.680;2023-12-14T05:51:04;3.49;84.04
70051;SHT30;57391;51.306;22.680;2023-12-14T05:53:06;3.51;84.00
70051;SHT30;57391;51.306;22.680;2023-12-14T05:55:10;3.50;83.91
70051;SHT30;57391;51.306;22.680;2023-12-14T05:57:12;3.49;83.94
70051;SHT30;57391;51.306;22.680;2023-12-14T05:59:14;3.48;83.94
70051;SHT30;57391;51.306;22.680;2023-12-14T06:01:16;3.46;83.90
70051;SHT30;57391;51.306;22.680;2023-12-14T06:03:21;3.44;84.03
70051;SHT30;57391;51.306;22.680;2023-12-14T06:05:23;3.44;84.04
70051;SHT30;57391;51.306;22.680;2023-12-14T06:07:25;3.44;84.09
70051;SHT30;57391;51.306;22.680;2023-12-14T06:09:27;3.42;84.03
70051;SHT30;57391;51.306;22.680;2023-12-14T06:11:36;3.40;84.04
70051;SHT30;57391;51.306;22.680;2023-12-14T06:13:38;3.39;84.16
70051;SHT30;57391;51.306;22.680;2023-12-14T06:15:40;3.39;84.30
70051;SHT30;57391;51.306;22.680;2023-12-14T06:17:41;3.40;84.24
70051;SHT30;57391;51.306;22.680;2023-12-14T06:19:43;3.39;84.28
70051;SHT30;57391;51.306;22.680;2023-12-14T06:21:45;3.38;84.26
70051;SHT30;57391;51.306;22.680;2023-12-14T06:23:48;3.37;84.36
70051;SHT30;57391;51.306;22.680;2023-12-14T06:25:50;3.36;84.38
70051;SHT30;57391;51.306;22.680;2023-12-14T06:27:52;3.34;84.40
70051;SHT30;57391;51.306;22.680;2023-12-14T06:29:53;3.34;84.36
70051;SHT30;57391;51.306;22.680;2023-12-14T06:31:55;3.31;84.40
70051;SHT30;57391;51.306;22.680;2023-12-14T06:33:57;3.30;84.55
70051;SHT30;57391;51.306;22.680;2023-12-14T06:36:02;3.29;84.57
70051;SHT30;57391;51.306;22.680;2023-12-14T06:38:06;3.30;84.63
70051;SHT30;57391;51.306;22.680;2023-12-14T06:40:08;3.32;84.68
70051;SHT30;57391;51.306;22.680;2023-12-14T06:42:10;3.32;84.64
70051;SHT30;57391;51.306;22.680;2023-12-14T06:44:13;3.34;84.53
70051;SHT30;57391;51.306;22.680;2023-12-14T06:46:15;3.33;84.53
70051;SHT30;57391;51.306;22.680;2023-12-14T06:48:17;3.32;84.53
70051;SHT30;57391;51.306;22.680;2023-12-14T06:50:19;3.33;84.60
70051;SHT30;57391;51.306;22.680;2023-12-14T06:52:20;3.31;84.55
70051;SHT30;57391;51.306;22.680;2023-12-14T06:54:22;3.30;84.64
70051;SHT30;57391;51.306;22.680;2023-12-14T06:56:24;3.30;84.61
70051;SHT30;57391;51.306;22.680;2023-12-14T06:58:25;3.29;84.66
70051;SHT30;57391;51.306;22.680;2023-12-14T07:00:27;3.30;84.72
70051;SHT30;57391;51.306;22.680;2023-12-14T07:02:30;3.30;84.84
70051;SHT30;57391;51.306;22.680;2023-12-14T07:04:32;3.32;84.85
70051;SHT30;57391;51.306;22.680;2023-12-14T07:06:34;3.33;84.86
70051;SHT30;57391;51.306;22.680;2023-12-14T07:08:36;3.34;84.72
70051;SHT30;57391;51.306;22.680;2023-12-14T07:10:38;3.32;84.70
70051;SHT30;57391;51.306;22.680;2023-12-14T07:12:43;3.33;84.84
70051;SHT30;57391;51.306;22.680;2023-12-14T07:14:44;3.33;84.76
70051;SHT30;57391;51.306;22.680;2023-12-14T07:16:46;3.31;84.70
70051;SHT30;57391;51.306;22.680;2023-12-14T07:18:48;3.30;84.72
70051;SHT30;57391;51.306;22.680;2023-12-14T07:20:49;3.29;84.84
70051;SHT30;57391;51.306;22.680;2023-12-14T07:22:51;3.27;84.91
70051;SHT30;57391;51.306;22.680;2023-12-14T07:24:53;3.27;84.96
70051;SHT30;57391;51.306;22.680;2023-12-14T07:26:55;3.29;84.97
70051;SHT30;57391;51.306;22.680;2023-12-14T07:28:56;3.29;84.91
70051;SHT30;57391;51.306;22.680;2023-12-14T07:30:58;3.29;84.95
70051;SHT30;57391;51.306;22.680;2023-12-14T07:33:00;3.29;84.99
70051;SHT30;57391;51.306;22.680;2023-12-14T07:35:02;3.29;85.00
70051;SHT30;57391;51.306;22.680;2023-12-14T07:37:04;3.30;85.00
70051;SHT30;57391;51.306;22.680;2023-12-14T07:39:07;3.29;85.10
70051;SHT30;57391;51.306;22.680;2023-12-14T07:41:10;3.30;85.11
70051;SHT30;57391;51.306;22.680;2023-12-14T07:43:12;3.30;85.18
70051;SHT30;57391;51.306;22.680;2023-12-14T07:45:13;3.29;85.10
70051;SHT30;57391;51.306;22.680;2023-12-14T07:47:15;3.29;85.19
70051;SHT30;57391;51.306;22.680;2023-12-14T07:49:17;3.29;85.18
70051;SHT30;57391;51.306;22.680;2023-12-14T07:51:23;3.29;85.20
70051;SHT30;57391;51.306;22.680;2023-12-14T07:53:25;3.29;85.22
70051;SHT30;57391;51.306;22.680;2023-12-14T07:55:27;3.28;85.30
70051;SHT30;57391;51.306;22.680;2023-12-14T07:57:30;3.29;85.31
70051;SHT30;57391;51.306;22.680;2023-12-14T07:59:32;3.29;85.35
70051;SHT30;57391;51.306;22.680;2023-12-14T08:01:34;3.29;85.45
70051;SHT30;57391;51.306;22.680;2023-12-14T08:03:36;3.31;85.43
70051;SHT30;57391;51.306;22.680;2023-12-14T08:05:44;3.30;85.36
70051;SHT30;57391;51.306;22.680;2023-12-14T08:07:47;3.31;85.47
70051;SHT30;57391;51.306;22.680;2023-12-14T08:09:49;3.34;85.50
70051;SHT30;57391;51.306;22.680;2023-12-14T08:11:50;3.36;85.50
70051;SHT30;57391;51.306;22.680;2023-12-14T08:13:53;3.38;85.45
70051;SHT30;57391;51.306;22.680;2023-12-14T08:15:55;3.39;85.39
70051;SHT30;57391;51.306;22.680;2023-12-14T08:17:57;3.40;85.36
70051;SHT30;57391;51.306;22.680;2023-12-14T08:19:58;3.41;85.40
70051;SHT30;57391;51.306;22.680;2023-12-14T08:22:00;3.42;85.40
70051;SHT30;57391;51.306;22.680;2023-12-14T08:24:02;3.44;85.45
70051;SHT30;57391;51.306;22.680;2023-12-14T08:26:05;3.46;85.45
70051;SHT30;57391;51.306;22.680;2023-12-14T08:28:09;3.48;85.43
70051;SHT30;57391;51.306;22.680;2023-12-14T08:30:11;3.50;85.32
70051;SHT30;57391;51.306;22.680;2023-12-14T08:32:14;3.51;85.24
70051;SHT30;57391;51.306;22.680;2023-12-14T08:34:16;3.51;85.29
70051;SHT30;57391;51.306;22.680;2023-12-14T08:36:18;3.53;85.35
70051;SHT30;57391;51.306;22.680;2023-12-14T08:38:21;3.54;85.35
70051;SHT30;57391;51.306;22.680;2023-12-14T08:40:23;3.56;85.32
70051;SHT30;57391;51.306;22.680;2023-12-14T08:42:24;3.60;85.31
70051;SHT30;57391;51.306;22.680;2023-12-14T08:44:26;3.63;85.39
70051;SHT30;57391;51.306;22.680;2023-12-14T08:46:28;3.66;85.31
70051;SHT30;57391;51.306;22.680;2023-12-14T08:48:30;3.69;85.30
70051;SHT30;57391;51.306;22.680;2023-12-14T08:50:32;3.71;85.26
70051;SHT30;57391;51.306;22.680;2023-12-14T08:52:33;3.73;85.16
70051;SHT30;57391;51.306;22.680;2023-12-14T08:54:35;3.76;85.14
70051;SHT30;57391;51.306;22.680;2023-12-14T08:56:37;3.79;85.13
70051;SHT30;57391;51.306;22.680;2023-12-14T08:58:39;3.82;85.07
70051;SHT30;57391;51.306;22.680;2023-12-14T09:00:40;3.84;84.97
70051;SHT30;57391;51.306;22.680;2023-12-14T09:02:42;3.83;84.81
70051;SHT30;57391;51.306;22.680;2023-12-14T09:04:45;3.82;84.71
70051;SHT30;57391;51.306;22.680;2023-12-14T09:06:47;3.83;84.81
70051;SHT30;57391;51.306;22.680;2023-12-14T09:08:48;3.83;84.82
70051;SHT30;57391;51.306;22.680;2023-12-14T09:10:50;3.83;84.75
70051;SHT30;57391;51.306;22.680;2023-12-14T09:12:52;3.85;84.69
70051;SHT30;57391;51.306;22.680;2023-12-14T09:14:54;3.85;84.74
70051;SHT30;57391;51.306;22.680;2023-12-14T09:16:55;3.86;84.70
70051;SHT30;57391;51.306;22.680;2023-12-14T09:18:57;3.88;84.75
70051;SHT30;57391;51.306;22.680;2023-12-14T09:20:59;3.90;84.65
70051;SHT30;57391;51.306;22.680;2023-12-14T09:23:01;3.92;84.54
70051;SHT30;57391;51.306;22.680;2023-12-14T09:25:03;3.93;84.50
70051;SHT30;57391;51.306;22.680;2023-12-14T09:27:05;3.94;84.45
70051;SHT30;57391;51.306;22.680;2023-12-14T09:29:07;3.97;84.51
70051;SHT30;57391;51.306;22.680;2023-12-14T09:31:08;4.00;84.39
70051;SHT30;57391;51.306;22.680;2023-12-14T09:33:10;4.01;84.39
70051;SHT30;57391;51.306;22.680;2023-12-14T09:35:13;4.02;84.24
70051;SHT30;57391;51.306;22.680;2023-12-14T09:37:15;4.02;84.26
70051;SHT30;57391;51.306;22.680;2023-12-14T09:39:17;4.04;84.25
70051;SHT30;57391;51.306;22.680;2023-12-14T09:41:20;4.05;84.28
70051;SHT30;57391;51.306;22.680;2023-12-14T09:43:22;4.07;84.20
70051;SHT30;57391;51.306;22.680;2023-12-14T09:45:27;4.07;84.06
70051;SHT30;57391;51.306;22.680;2023-12-14T09:47:30;4.09;84.00
70051;SHT30;57391;51.306;22.680;2023-12-14T09:49:32;4.11;84.00
70051;SHT30;57391;51.306;22.680;2023-12-14T09:51:34;4.14;83.91
70051;SHT30;57391;51.306;22.680;2023-12-14T09:53:36;4.16;83.72
70051;SHT30;57391;51.306;22.680;2023-12-14T09:55:37;4.16;83.54
70051;SHT30;57391;51.306;22.680;2023-12-14T09:57:39;4.17;83.44
70051;SHT30;57391;51.306;22.680;2023-12-14T09:59:41;4.18;83.51
70051;SHT30;57391;51.306;22.680;2023-12-14T10:01:52;4.22;83.54
70051;SHT30;57391;51.306;22.680;2023-12-14T10:04:07;4.23;83.45
70051;SHT30;57391;51.306;22.680;2023-12-14T10:06:10;4.25;83.46
70051;SHT30;57391;51.306;22.680;2023-12-14T10:08:14;4.26;83.35
70051;SHT30;57391;51.306;22.680;2023-12-14T10:10:17;4.24;83.24
70051;SHT30;57391;51.306;22.680;2023-12-14T10:12:20;4.25;83.41
70051;SHT30;57391;51.306;22.680;2023-12-14T10:14:23;4.28;83.34
70051;SHT30;57391;51.306;22.680;2023-12-14T10:16:30;4.28;83.26
70051;SHT30;57391;51.306;22.680;2023-12-14T10:18:34;4.28;83.21
70051;SHT30;57391;51.306;22.680;2023-12-14T10:20:36;4.29;83.29
70051;SHT30;57391;51.306;22.680;2023-12-14T10:22:38;4.30;83.20
70051;SHT30;57391;51.306;22.680;2023-12-14T10:24:42;4.30;83.11
70051;SHT30;57391;51.306;22.680;2023-12-14T10:26:47;4.29;83.00
70051;SHT30;57391;51.306;22.680;2023-12-14T10:28:50;4.26;83.01
70051;SHT30;57391;51.306;22.680;2023-12-14T10:30:52;4.25;83.15
70051;SHT30;57391;51.306;22.680;2023-12-14T10:32:55;4.24;83.19
70051;SHT30;57391;51.306;22.680;2023-12-14T10:34:57;4.26;83.14
70051;SHT30;57391;51.306;22.680;2023-12-14T10:36:58;4.24;83.04
70051;SHT30;57391;51.306;22.680;2023-12-14T10:39:02;4.22;83.09
70051;SHT30;57391;51.306;22.680;2023-12-14T10:41:04;4.21;83.05
70051;SHT30;57391;51.306;22.680;2023-12-14T10:43:08;4.21;83.20
70051;SHT30;57391;51.306;22.680;2023-12-14T10:45:13;4.21;83.20
70051;SHT30;57391;51.306;22.680;2023-12-14T10:47:17;4.20;83.18
70051;SHT30;57391;51.306;22.680;2023-12-14T10:49:20;4.20;83.15
70051;SHT30;57391;51.306;22.680;2023-12-14T10:51:25;4.19;83.15
70051;SHT30;57391;51.306;22.680;2023-12-14T10:53:29;4.19;83.03
70051;SHT30;57391;51.306;22.680;2023-12-14T10:55:38;4.18;83.04
70051;SHT30;57391;51.306;22.680;2023-12-14T10:57:46;4.17;83.09
70051;SHT30;57391;51.306;22.680;2023-12-14T10:59:55;4.16;83.06
70051;SHT30;57391;51.306;22.680;2023-12-14T11:02:04;4.16;83.05
70051;SHT30;57391;51.306;22.680;2023-12-14T11:04:12;4.15;83.10
70051;SHT30;57391;51.306;22.680;2023-12-14T11:08:34;4.12;83.11
70051;SHT30;57391;51.306;22.680;2023-12-14T11:10:40;4.11;83.21
70051;SHT30;57391;51.306;22.680;2023-12-14T11:13:01;4.08;83.22
70051;SHT30;57391;51.306;22.680;2023-12-14T11:15:05;4.06;83.30
70051;SHT30;57391;51.306;22.680;2023-12-14T11:17:08;4.06;83.39
70051;SHT30;57391;51.306;22.680;2023-12-14T11:21:25;4.09;83.50
70051;SHT30;57391;51.306;22.680;2023-12-14T11:23:28;4.09;83.40
70051;SHT30;57391;51.306;22.680;2023-12-14T11:25:37;4.09;83.41
70051;SHT30;57391;51.306;22.680;2023-12-14T11:27:42;4.10;83.50
70051;SHT30;57391;51.306;22.680;2023-12-14T11:29:48;4.11;83.41
70051;SHT30;57391;51.306;22.680;2023-12-14T11:31:50;4.13;83.43
70051;SHT30;57391;51.306;22.680;2023-12-14T11:33:52;4.16;83.36
70051;SHT30;57391;51.306;22.680;2023-12-14T11:35:57;4.18;83.38
70051;SHT30;57391;51.306;22.680;2023-12-14T11:37:58;4.20;83.29
70051;SHT30;57391;51.306;22.680;2023-12-14T11:40:03;4.22;83.22
70051;SHT30;57391;51.306;22.680;2023-12-14T11:42:09;4.27;83.24
70051;SHT30;57391;51.306;22.680;2023-12-14T11:44:21;4.29;83.05
70051;SHT30;57391;51.306;22.680;2023-12-14T11:46:24;4.30;83.01
70051;SHT30;57391;51.306;22.680;2023-12-14T11:48:25;4.33;83.06
70051;SHT30;57391;51.306;22.680;2023-12-14T11:50:27;4.35;83.00
70051;SHT30;57391;51.306;22.680;2023-12-14T11:52:29;4.38;82.88
70051;SHT30;57391;51.306;22.680;2023-12-14T11:54:31;4.38;82.76
70051;SHT30;57391;51.306;22.680;2023-12-14T11:56:34;4.39;82.63
70051;SHT30;57391;51.306;22.680;2023-12-14T11:58:35;4.37;82.65
70051;SHT30;57391;51.306;22.680;2023-12-14T12:00:37;4.38;82.66
70051;SHT30;57391;51.306;22.680;2023-12-14T12:02:41;4.38;82.60
70051;SHT30;57391;51.306;22.680;2023-12-14T12:04:51;4.37;82.53
70051;SHT30;57391;51.306;22.680;2023-12-14T12:07:00;4.36;82.40
70051;SHT30;57391;51.306;22.680;2023-12-14T12:09:06;4.36;82.40
70051;SHT30;57391;51.306;22.680;2023-12-14T12:11:15;4.35;82.46
70051;SHT30;57391;51.306;22.680;2023-12-14T12:13:19;4.36;82.45
70051;SHT30;57391;51.306;22.680;2023-12-14T12:15:22;4.34;82.35
70051;SHT30;57391;51.306;22.680;2023-12-14T12:17:23;4.34;82.39
70051;SHT30;57391;51.306;22.680;2023-12-14T12:19:25;4.36;82.34
70051;SHT30;57391;51.306;22.680;2023-12-14T12:21:27;4.37;82.32
70051;SHT30;57391;51.306;22.680;2023-12-14T12:23:29;4.37;82.20
70051;SHT30;57391;51.306;22.680;2023-12-14T12:25:42;4.37;82.20
70051;SHT30;57391;51.306;22.680;2023-12-14T12:27:43;4.38;82.28
70051;SHT30;57391;51.306;22.680;2023-12-14T12:29:46;4.38;82.24
70051;SHT30;57391;51.306;22.680;2023-12-14T12:31:48;4.38;82.21
70051;SHT30;57391;51.306;22.680;2023-12-14T12:33:50;4.39;82.20
70051;SHT30;57391;51.306;22.680;2023-12-14T12:35:52;4.39;82.31
70051;SHT30;57391;51.306;22.680;2023-12-14T12:37:55;4.40;82.41
70051;SHT30;57391;51.306;22.680;2023-12-14T12:39:57;4.44;82.34
70051;SHT30;57391;51.306;22.680;2023-12-14T12:41:59;4.46;82.26
70051;SHT30;57391;51.306;22.680;2023-12-14T12:44:01;4.49;82.29
70051;SHT30;57391;51.306;22.680;2023-12-14T12:46:07;4.50;82.15
70051;SHT30;57391;51.306;22.680;2023-12-14T12:48:09;4.53;82.20
70051;SHT30;57391;51.306;22.680;2023-12-14T12:50:11;4.54;82.10
70051;SHT30;57391;51.306;22.680;2023-12-14T12:52:14;4.55;82.06
70051;SHT30;57391;51.306;22.680;2023-12-14T12:54:15;4.54;82.01
70051;SHT30;57391;51.306;22.680;2023-12-14T12:56:17;4.54;81.99
70051;SHT30;57391;51.306;22.680;2023-12-14T12:58:20;4.55;81.94